sensor_id;sensor_type;location;lat;lon;timestamp;P1;durP1;ratioP1;P2;durP2;ratioP2
28174;SDS011;59417;44.788;10.334;2023-02-15T00:00:50;66.13;;;34.45;;
28174;SDS011;59417;44.788;10.334;2023-02-15T00:03:16;61.85;;;35.03;;
28174;SDS011;59417;44.788;10.334;2023-02-15T00:05:41;69.05;;;33.40;;
28174;SDS011;59417;44.788;10.334;2023-02-15T00:08:07;63.38;;;33.80;;
28174;SDS011;59417;44.788;10.334;2023-02-15T00:10:33;62.85;;;33.75;;
28174;SDS011;59417;44.788;10.334;2023-02-15T00:12:59;60.92;;;33.20;;
28174;SDS011;59417;44.788;10.334;2023-02-15T00:15:27;54.58;;;31.05;;
28174;SDS011;59417;44.788;10.334;2023-02-15T00:17:53;63.90;;;33.75;;
28174;SDS011;59417;44.788;10.334;2023-02-15T00:20:20;62.00;;;32.70;;
28174;SDS011;59417;44.788;10.334;2023-02-15T00:22:46;58.50;;;32.40;;
28174;SDS011;59417;44.788;10.334;2023-02-15T00:25:12;59.88;;;33.00;;
28174;SDS011;59417;44.788;10.334;2023-02-15T00:27:38;61.83;;;33.25;;
28174;SDS011;59417;44.788;10.334;2023-02-15T00:30:03;61.30;;;32.30;;
28174;SDS011;59417;44.788;10.334;2023-02-15T00:32:30;62.72;;;32.25;;
28174;SDS011;59417;44.788;10.334;2023-02-15T00:34:56;52.47;;;29.55;;
28174;SDS011;59417;44.788;10.334;2023-02-15T00:37:23;62.95;;;30.27;;
28174;SDS011;59417;44.788;10.334;2023-02-15T00:39:48;60.90;;;30.08;;
28174;SDS011;59417;44.788;10.334;2023-02-15T00:42:14;55.88;;;30.38;;
28174;SDS011;59417;44.788;10.334;2023-02-15T00:44:39;53.33;;;30.20;;
28174;SDS011;59417;44.788;10.334;2023-02-15T00:47:07;64.38;;;32.95;;
28174;SDS011;59417;44.788;10.334;2023-02-15T00:49:33;63.20;;;30.30;;
28174;SDS011;59417;44.788;10.334;2023-02-15T00:51:58;52.22;;;29.33;;
28174;SDS011;59417;44.788;10.334;2023-02-15T00:54:24;54.45;;;29.98;;
28174;SDS011;59417;44.788;10.334;2023-02-15T00:56:49;50.78;;;28.20;;
28174;SDS011;59417;44.788;10.334;2023-02-15T00:59:15;52.92;;;29.95;;
28174;SDS011;59417;44.788;10.334;2023-02-15T01:01:41;50.83;;;29.42;;
28174;SDS011;59417;44.788;10.334;2023-02-15T01:04:06;59.08;;;28.38;;
28174;SDS011;59417;44.788;10.334;2023-02-15T01:06:32;54.17;;;29.90;;
28174;SDS011;59417;44.788;10.334;2023-02-15T01:08:58;58.05;;;29.15;;
28174;SDS011;59417;44.788;10.334;2023-02-15T01:11:26;54.05;;;29.60;;
28174;SDS011;59417;44.788;10.334;2023-02-15T01:13:57;55.10;;;28.45;;
28174;SDS011;59417;44.788;10.334;2023-02-15T01:16:26;48.42;;;27.90;;
28174;SDS011;59417;44.788;10.334;2023-02-15T01:18:53;47.92;;;26.67;;
28174;SDS011;59417;44.788;10.334;2023-02-15T01:21:20;51.97;;;27.40;;
28174;SDS011;59417;44.788;10.334;2023-02-15T01:23:48;53.75;;;26.33;;
28174;SDS011;59417;44.788;10.334;2023-02-15T01:26:14;45.78;;;26.33;;
28174;SDS011;59417;44.788;10.334;2023-02-15T01:28:42;47.90;;;26.42;;
28174;SDS011;59417;44.788;10.334;2023-02-15T01:31:10;51.63;;;26.38;;
28174;SDS011;59417;44.788;10.334;2023-02-15T01:33:38;54.03;;;27.15;;
28174;SDS011;59417;44.788;10.334;2023-02-15T01:36:04;55.03;;;27.60;;
28174;SDS011;59417;44.788;10.334;2023-02-15T01:38:31;54.58;;;27.65;;
28174;SDS011;59417;44.788;10.334;2023-02-15T01:41:00;48.85;;;27.70;;
28174;SDS011;59417;44.788;10.334;2023-02-15T01:43:55;55.78;;;25.98;;
28174;SDS011;59417;44.788;10.334;2023-02-15T01:46:40;47.10;;;26.02;;
28174;SDS011;59417;44.788;10.334;2023-02-15T01:49:13;42.78;;;24.33;;
28174;SDS011;59417;44.788;10.334;2023-02-15T01:51:42;44.05;;;24.67;;
28174;SDS011;59417;44.788;10.334;2023-02-15T01:54:31;40.08;;;22.73;;
28174;SDS011;59417;44.788;10.334;2023-02-15T01:57:31;41.72;;;22.90;;
28174;SDS011;59417;44.788;10.334;2023-02-15T01:59:52;38.08;;;22.63;;
28174;SDS011;59417;44.788;10.334;2023-02-15T02:02:21;42.10;;;24.30;;
28174;SDS011;59417;44.788;10.334;2023-02-15T02:04:54;41.50;;;22.80;;
28174;SDS011;59417;44.788;10.334;2023-02-15T02:07:27;40.88;;;21.77;;
28174;SDS011;59417;44.788;10.334;2023-02-15T02:09:54;44.53;;;21.80;;
28174;SDS011;59417;44.788;10.334;2023-02-15T02:12:22;36.75;;;20.33;;
28174;SDS011;59417;44.788;10.334;2023-02-15T02:14:50;39.22;;;22.73;;
28174;SDS011;59417;44.788;10.334;2023-02-15T02:28:53;40.70;;;21.65;;
28174;SDS011;59417;44.788;10.334;2023-02-15T02:34:29;42.10;;;22.42;;
28174;SDS011;59417;44.788;10.334;2023-02-15T02:40:10;43.10;;;21.55;;
28174;SDS011;59417;44.788;10.334;2023-02-15T02:42:44;43.17;;;22.70;;
28174;SDS011;59417;44.788;10.334;2023-02-15T02:45:20;37.88;;;22.70;;
28174;SDS011;59417;44.788;10.334;2023-02-15T02:48:02;40.97;;;20.38;;
28174;SDS011;59417;44.788;10.334;2023-02-15T02:50:33;38.25;;;21.25;;
28174;SDS011;59417;44.788;10.334;2023-02-15T02:52:59;38.50;;;21.02;;
28174;SDS011;59417;44.788;10.334;2023-02-15T02:55:35;38.05;;;20.90;;
28174;SDS011;59417;44.788;10.334;2023-02-15T03:01:00;40.83;;;22.00;;
28174;SDS011;59417;44.788;10.334;2023-02-15T03:03:43;39.60;;;20.17;;
28174;SDS011;59417;44.788;10.334;2023-02-15T03:06:13;38.63;;;21.00;;
28174;SDS011;59417;44.788;10.334;2023-02-15T03:08:45;37.92;;;21.00;;
28174;SDS011;59417;44.788;10.334;2023-02-15T03:11:20;41.65;;;22.38;;
28174;SDS011;59417;44.788;10.334;2023-02-15T03:13:46;37.50;;;20.23;;
28174;SDS011;59417;44.788;10.334;2023-02-15T03:16:15;39.20;;;19.70;;
28174;SDS011;59417;44.788;10.334;2023-02-15T03:18:52;40.13;;;21.75;;
28174;SDS011;59417;44.788;10.334;2023-02-15T03:21:23;38.88;;;19.77;;
28174;SDS011;59417;44.788;10.334;2023-02-15T03:24:14;33.72;;;19.23;;
28174;SDS011;59417;44.788;10.334;2023-02-15T03:26:47;34.30;;;20.05;;
28174;SDS011;59417;44.788;10.334;2023-02-15T03:29:18;36.85;;;19.17;;
28174;SDS011;59417;44.788;10.334;2023-02-15T03:31:50;36.40;;;20.45;;
28174;SDS011;59417;44.788;10.334;2023-02-15T03:34:20;34.92;;;19.42;;
28174;SDS011;59417;44.788;10.334;2023-02-15T03:44:36;37.60;;;19.35;;
28174;SDS011;59417;44.788;10.334;2023-02-15T03:47:13;34.08;;;19.92;;
28174;SDS011;59417;44.788;10.334;2023-02-15T03:49:50;33.65;;;18.73;;
28174;SDS011;59417;44.788;10.334;2023-02-15T03:52:22;32.38;;;18.48;;
28174;SDS011;59417;44.788;10.334;2023-02-15T03:54:51;37.30;;;19.13;;
28174;SDS011;59417;44.788;10.334;2023-02-15T03:57:25;36.15;;;19.45;;
28174;SDS011;59417;44.788;10.334;2023-02-15T04:00:13;34.03;;;17.33;;
28174;SDS011;59417;44.788;10.334;2023-02-15T04:05:37;25.48;;;14.30;;
28174;SDS011;59417;44.788;10.334;2023-02-15T04:08:03;21.70;;;13.13;;
28174;SDS011;59417;44.788;10.334;2023-02-15T04:10:29;30.67;;;19.05;;
28174;SDS011;59417;44.788;10.334;2023-02-15T04:13:13;32.38;;;16.58;;
28174;SDS011;59417;44.788;10.334;2023-02-15T04:15:38;31.38;;;16.75;;
28174;SDS011;59417;44.788;10.334;2023-02-15T04:18:23;27.67;;;15.48;;
28174;SDS011;59417;44.788;10.334;2023-02-15T04:21:07;28.30;;;15.77;;
28174;SDS011;59417;44.788;10.334;2023-02-15T04:23:52;31.05;;;15.82;;
28174;SDS011;59417;44.788;10.334;2023-02-15T04:26:37;24.73;;;14.73;;
28174;SDS011;59417;44.788;10.334;2023-02-15T04:29:03;26.83;;;13.48;;
28174;SDS011;59417;44.788;10.334;2023-02-15T04:31:28;18.83;;;11.77;;
28174;SDS011;59417;44.788;10.334;2023-02-15T04:33:54;19.52;;;11.80;;
28174;SDS011;59417;44.788;10.334;2023-02-15T04:36:19;15.45;;;10.48;;
28174;SDS011;59417;44.788;10.334;2023-02-15T04:38:45;19.85;;;11.85;;
28174;SDS011;59417;44.788;10.334;2023-02-15T04:41:11;21.90;;;11.25;;
28174;SDS011;59417;44.788;10.334;2023-02-15T04:43:38;18.50;;;11.50;;
28174;SDS011;59417;44.788;10.334;2023-02-15T04:46:06;21.38;;;11.32;;
28174;SDS011;59417;44.788;10.334;2023-02-15T04:48:31;19.55;;;11.20;;
28174;SDS011;59417;44.788;10.334;2023-02-15T04:50:57;19.20;;;11.20;;
28174;SDS011;59417;44.788;10.334;2023-02-15T04:53:23;24.45;;;12.20;;
28174;SDS011;59417;44.788;10.334;2023-02-15T04:55:48;25.02;;;13.25;;
28174;SDS011;59417;44.788;10.334;2023-02-15T04:58:14;23.23;;;11.82;;
28174;SDS011;59417;44.788;10.334;2023-02-15T05:00:39;20.73;;;11.82;;
28174;SDS011;59417;44.788;10.334;2023-02-15T05:03:05;24.33;;;13.07;;
28174;SDS011;59417;44.788;10.334;2023-02-15T05:05:30;23.27;;;14.23;;
28174;SDS011;59417;44.788;10.334;2023-02-15T05:07:56;20.08;;;12.82;;
28174;SDS011;59417;44.788;10.334;2023-02-15T05:10:21;27.77;;;15.90;;
28174;SDS011;59417;44.788;10.334;2023-02-15T05:12:47;25.27;;;15.15;;
28174;SDS011;59417;44.788;10.334;2023-02-15T05:15:13;25.30;;;14.73;;
28174;SDS011;59417;44.788;10.334;2023-02-15T05:17:38;27.05;;;14.27;;
28174;SDS011;59417;44.788;10.334;2023-02-15T05:20:04;27.05;;;14.23;;
28174;SDS011;59417;44.788;10.334;2023-02-15T05:22:31;30.70;;;14.30;;
28174;SDS011;59417;44.788;10.334;2023-02-15T05:24:56;29.75;;;14.23;;
28174;SDS011;59417;44.788;10.334;2023-02-15T05:27:40;26.45;;;14.25;;
28174;SDS011;59417;44.788;10.334;2023-02-15T05:30:25;31.08;;;14.82;;
28174;SDS011;59417;44.788;10.334;2023-02-15T05:32:50;29.52;;;15.27;;
28174;SDS011;59417;44.788;10.334;2023-02-15T05:35:16;27.80;;;14.10;;
28174;SDS011;59417;44.788;10.334;2023-02-15T05:37:42;27.38;;;13.73;;
28174;SDS011;59417;44.788;10.334;2023-02-15T05:40:07;25.45;;;14.45;;
28174;SDS011;59417;44.788;10.334;2023-02-15T05:42:33;28.13;;;14.05;;
28174;SDS011;59417;44.788;10.334;2023-02-15T05:44:59;24.95;;;13.75;;
28174;SDS011;59417;44.788;10.334;2023-02-15T05:47:25;28.52;;;13.77;;
28174;SDS011;59417;44.788;10.334;2023-02-15T05:49:50;25.50;;;13.80;;
28174;SDS011;59417;44.788;10.334;2023-02-15T05:52:16;21.52;;;13.05;;
28174;SDS011;59417;44.788;10.334;2023-02-15T05:54:42;23.33;;;13.60;;
28174;SDS011;59417;44.788;10.334;2023-02-15T05:57:07;21.88;;;13.15;;
28174;SDS011;59417;44.788;10.334;2023-02-15T05:59:33;28.58;;;14.18;;
28174;SDS011;59417;44.788;10.334;2023-02-15T06:01:58;25.25;;;13.85;;
28174;SDS011;59417;44.788;10.334;2023-02-15T06:04:24;23.38;;;13.93;;
28174;SDS011;59417;44.788;10.334;2023-02-15T06:06:52;22.75;;;13.98;;
28174;SDS011;59417;44.788;10.334;2023-02-15T06:09:41;28.38;;;14.75;;
28174;SDS011;59417;44.788;10.334;2023-02-15T06:12:07;24.90;;;13.93;;
28174;SDS011;59417;44.788;10.334;2023-02-15T06:14:58;21.15;;;12.93;;
28174;SDS011;59417;44.788;10.334;2023-02-15T06:17:26;28.65;;;13.15;;
28174;SDS011;59417;44.788;10.334;2023-02-15T06:19:52;24.13;;;12.50;;
28174;SDS011;59417;44.788;10.334;2023-02-15T06:22:20;21.27;;;12.90;;
28174;SDS011;59417;44.788;10.334;2023-02-15T06:24:49;20.52;;;12.23;;
28174;SDS011;59417;44.788;10.334;2023-02-15T06:27:20;26.25;;;13.60;;
28174;SDS011;59417;44.788;10.334;2023-02-15T06:30:03;23.55;;;12.80;;
28174;SDS011;59417;44.788;10.334;2023-02-15T06:32:45;27.67;;;13.57;;
28174;SDS011;59417;44.788;10.334;2023-02-15T06:35:11;25.70;;;12.50;;
28174;SDS011;59417;44.788;10.334;2023-02-15T06:37:38;29.58;;;13.70;;
28174;SDS011;59417;44.788;10.334;2023-02-15T06:40:04;33.95;;;12.98;;
28174;SDS011;59417;44.788;10.334;2023-02-15T06:42:30;28.27;;;14.27;;
28174;SDS011;59417;44.788;10.334;2023-02-15T06:44:56;27.23;;;14.30;;
28174;SDS011;59417;44.788;10.334;2023-02-15T06:47:24;30.42;;;15.57;;
28174;SDS011;59417;44.788;10.334;2023-02-15T06:49:50;26.48;;;15.43;;
28174;SDS011;59417;44.788;10.334;2023-02-15T06:52:35;36.53;;;14.85;;
28174;SDS011;59417;44.788;10.334;2023-02-15T06:55:01;24.95;;;14.30;;
28174;SDS011;59417;44.788;10.334;2023-02-15T06:57:26;31.17;;;14.25;;
28174;SDS011;59417;44.788;10.334;2023-02-15T06:59:54;34.58;;;15.95;;
28174;SDS011;59417;44.788;10.334;2023-02-15T07:02:23;28.65;;;14.88;;
28174;SDS011;59417;44.788;10.334;2023-02-15T07:04:49;29.52;;;15.02;;
28174;SDS011;59417;44.788;10.334;2023-02-15T07:07:18;31.40;;;14.85;;
28174;SDS011;59417;44.788;10.334;2023-02-15T07:09:46;26.65;;;11.70;;
28174;SDS011;59417;44.788;10.334;2023-02-15T07:12:12;25.05;;;12.57;;
28174;SDS011;59417;44.788;10.334;2023-02-15T07:15:05;21.50;;;11.73;;
28174;SDS011;59417;44.788;10.334;2023-02-15T07:21:27;16.05;;;9.85;;
28174;SDS011;59417;44.788;10.334;2023-02-15T07:26:59;20.58;;;11.23;;
28174;SDS011;59417;44.788;10.334;2023-02-15T07:32:49;24.70;;;10.85;;
28174;SDS011;59417;44.788;10.334;2023-02-15T08:50:15;64.45;;;33.45;;
28174;SDS011;59417;44.788;10.334;2023-02-15T08:57:37;55.72;;;29.80;;
28174;SDS011;59417;44.788;10.334;2023-02-15T09:12:47;72.70;;;35.97;;
28174;SDS011;59417;44.788;10.334;2023-02-15T09:15:15;71.15;;;38.88;;
28174;SDS011;59417;44.788;10.334;2023-02-15T09:17:40;74.53;;;40.03;;
28174;SDS011;59417;44.788;10.334;2023-02-15T09:20:06;78.35;;;41.28;;
28174;SDS011;59417;44.788;10.334;2023-02-15T09:22:32;67.63;;;39.75;;
28174;SDS011;59417;44.788;10.334;2023-02-15T09:24:58;77.32;;;41.53;;
28174;SDS011;59417;44.788;10.334;2023-02-15T09:27:24;76.60;;;44.70;;
28174;SDS011;59417;44.788;10.334;2023-02-15T09:29:49;74.20;;;41.80;;
28174;SDS011;59417;44.788;10.334;2023-02-15T09:32:15;81.15;;;44.20;;
28174;SDS011;59417;44.788;10.334;2023-02-15T09:34:42;95.63;;;47.95;;
28174;SDS011;59417;44.788;10.334;2023-02-15T09:37:08;99.60;;;51.72;;
28174;SDS011;59417;44.788;10.334;2023-02-15T09:39:33;86.95;;;49.97;;
28174;SDS011;59417;44.788;10.334;2023-02-15T09:42:14;97.47;;;53.70;;
28174;SDS011;59417;44.788;10.334;2023-02-15T09:51:15;93.70;;;51.83;;
28174;SDS011;59417;44.788;10.334;2023-02-15T09:56:23;86.35;;;48.90;;
28174;SDS011;59417;44.788;10.334;2023-02-15T10:05:12;66.82;;;34.75;;
28174;SDS011;59417;44.788;10.334;2023-02-15T10:11:31;54.22;;;32.20;;
28174;SDS011;59417;44.788;10.334;2023-02-15T10:25:27;48.95;;;30.17;;
28174;SDS011;59417;44.788;10.334;2023-02-15T10:37:50;53.03;;;28.45;;
28174;SDS011;59417;44.788;10.334;2023-02-15T10:40:57;48.47;;;28.08;;
28174;SDS011;59417;44.788;10.334;2023-02-15T10:52:21;60.38;;;28.48;;
28174;SDS011;59417;44.788;10.334;2023-02-15T11:00:23;47.05;;;26.10;;
28174;SDS011;59417;44.788;10.334;2023-02-15T11:12:24;56.38;;;30.35;;
28174;SDS011;59417;44.788;10.334;2023-02-15T11:17:49;56.72;;;31.33;;
28174;SDS011;59417;44.788;10.334;2023-02-15T11:23:07;57.33;;;31.27;;
28174;SDS011;59417;44.788;10.334;2023-02-15T11:25:44;58.03;;;31.13;;
28174;SDS011;59417;44.788;10.334;2023-02-15T11:28:18;59.40;;;31.40;;
28174;SDS011;59417;44.788;10.334;2023-02-15T11:30:54;53.35;;;30.80;;
28174;SDS011;59417;44.788;10.334;2023-02-15T11:33:45;56.58;;;31.08;;
28174;SDS011;59417;44.788;10.334;2023-02-15T11:36:24;66.03;;;33.10;;
28174;SDS011;59417;44.788;10.334;2023-02-15T11:38:58;60.55;;;33.60;;
28174;SDS011;59417;44.788;10.334;2023-02-15T11:41:49;62.72;;;33.50;;
28174;SDS011;59417;44.788;10.334;2023-02-15T11:44:20;67.85;;;32.63;;
28174;SDS011;59417;44.788;10.334;2023-02-15T11:46:51;56.47;;;30.95;;
28174;SDS011;59417;44.788;10.334;2023-02-15T11:49:28;66.05;;;32.88;;
28174;SDS011;59417;44.788;10.334;2023-02-15T11:52:05;61.10;;;33.58;;
28174;SDS011;59417;44.788;10.334;2023-02-15T11:54:40;63.92;;;36.75;;
28174;SDS011;59417;44.788;10.334;2023-02-15T11:57:14;75.65;;;35.85;;
28174;SDS011;59417;44.788;10.334;2023-02-15T12:06:41;69.55;;;34.67;;
28174;SDS011;59417;44.788;10.334;2023-02-15T12:09:35;65.55;;;32.90;;
28174;SDS011;59417;44.788;10.334;2023-02-15T12:12:48;63.25;;;33.35;;
28174;SDS011;59417;44.788;10.334;2023-02-15T12:19:43;64.10;;;34.00;;
28174;SDS011;59417;44.788;10.334;2023-02-15T12:22:18;67.65;;;34.15;;
28174;SDS011;59417;44.788;10.334;2023-02-15T12:28:54;60.38;;;32.45;;
28174;SDS011;59417;44.788;10.334;2023-02-15T12:32:15;65.68;;;33.78;;
28174;SDS011;59417;44.788;10.334;2023-02-15T12:38:42;67.97;;;31.83;;
28174;SDS011;59417;44.788;10.334;2023-02-15T12:41:33;58.05;;;31.85;;
28174;SDS011;59417;44.788;10.334;2023-02-15T12:44:32;63.45;;;34.47;;
28174;SDS011;59417;44.788;10.334;2023-02-15T12:47:03;69.05;;;35.45;;
28174;SDS011;59417;44.788;10.334;2023-02-15T12:49:43;51.50;;;30.55;;
28174;SDS011;59417;44.788;10.334;2023-02-15T12:54:49;65.35;;;33.83;;
28174;SDS011;59417;44.788;10.334;2023-02-15T12:59:53;64.30;;;34.50;;
28174;SDS011;59417;44.788;10.334;2023-02-15T13:02:46;56.65;;;31.85;;
28174;SDS011;59417;44.788;10.334;2023-02-15T13:05:21;64.68;;;33.38;;
28174;SDS011;59417;44.788;10.334;2023-02-15T13:11:13;61.95;;;31.58;;
28174;SDS011;59417;44.788;10.334;2023-02-15T13:13:55;61.20;;;31.45;;
28174;SDS011;59417;44.788;10.334;2023-02-15T13:22:41;68.45;;;31.77;;
28174;SDS011;59417;44.788;10.334;2023-02-15T13:39:40;65.85;;;35.80;;
28174;SDS011;59417;44.788;10.334;2023-02-15T13:46:47;71.22;;;35.20;;
28174;SDS011;59417;44.788;10.334;2023-02-15T13:52:27;71.25;;;35.55;;
28174;SDS011;59417;44.788;10.334;2023-02-15T14:01:44;68.35;;;35.17;;
28174;SDS011;59417;44.788;10.334;2023-02-15T14:11:39;66.68;;;34.15;;
28174;SDS011;59417;44.788;10.334;2023-02-15T14:30:48;68.75;;;33.63;;
28174;SDS011;59417;44.788;10.334;2023-02-15T14:49:26;71.90;;;34.57;;
28174;SDS011;59417;44.788;10.334;2023-02-15T15:02:47;64.68;;;35.50;;
28174;SDS011;59417;44.788;10.334;2023-02-15T15:05:29;73.07;;;33.63;;
28174;SDS011;59417;44.788;10.334;2023-02-15T15:13:56;66.32;;;31.85;;
28174;SDS011;59417;44.788;10.334;2023-02-15T15:16:24;59.40;;;32.10;;
28174;SDS011;59417;44.788;10.334;2023-02-15T15:18:56;65.65;;;33.25;;
28174;SDS011;59417;44.788;10.334;2023-02-15T15:50:28;73.60;;;34.25;;
28174;SDS011;59417;44.788;10.334;2023-02-15T15:52:55;68.97;;;33.55;;
28174;SDS011;59417;44.788;10.334;2023-02-15T15:55:25;62.90;;;32.17;;
28174;SDS011;59417;44.788;10.334;2023-02-15T15:57:56;63.45;;;31.95;;
28174;SDS011;59417;44.788;10.334;2023-02-15T16:03:14;64.50;;;31.38;;
28174;SDS011;59417;44.788;10.334;2023-02-15T16:06:12;63.10;;;31.27;;
28174;SDS011;59417;44.788;10.334;2023-02-15T16:08:40;65.40;;;30.98;;
28174;SDS011;59417;44.788;10.334;2023-02-15T16:11:27;66.18;;;32.65;;
28174;SDS011;59417;44.788;10.334;2023-02-15T16:13:55;68.37;;;33.50;;
28174;SDS011;59417;44.788;10.334;2023-02-15T16:16:22;62.95;;;32.72;;
28174;SDS011;59417;44.788;10.334;2023-02-15T16:18:55;68.43;;;32.33;;
28174;SDS011;59417;44.788;10.334;2023-02-15T16:21:29;65.88;;;34.03;;
28174;SDS011;59417;44.788;10.334;2023-02-15T16:32:48;72.00;;;35.58;;
28174;SDS011;59417;44.788;10.334;2023-02-15T16:35:14;63.33;;;33.47;;
28174;SDS011;59417;44.788;10.334;2023-02-15T16:37:54;70.05;;;32.88;;
28174;SDS011;59417;44.788;10.334;2023-02-15T16:41:32;72.22;;;33.08;;
28174;SDS011;59417;44.788;10.334;2023-02-15T16:44:19;64.55;;;32.80;;
28174;SDS011;59417;44.788;10.334;2023-02-15T16:46:49;67.65;;;33.13;;
28174;SDS011;59417;44.788;10.334;2023-02-15T16:49:20;71.38;;;34.70;;
28174;SDS011;59417;44.788;10.334;2023-02-15T16:52:06;70.43;;;34.60;;
28174;SDS011;59417;44.788;10.334;2023-02-15T16:54:36;69.45;;;34.22;;
28174;SDS011;59417;44.788;10.334;2023-02-15T16:57:02;65.03;;;33.50;;
28174;SDS011;59417;44.788;10.334;2023-02-15T16:59:37;71.15;;;34.05;;
28174;SDS011;59417;44.788;10.334;2023-02-15T17:05:18;74.45;;;35.33;;
28174;SDS011;59417;44.788;10.334;2023-02-15T17:21:56;72.40;;;35.45;;
28174;SDS011;59417;44.788;10.334;2023-02-15T17:24:33;72.10;;;36.83;;
28174;SDS011;59417;44.788;10.334;2023-02-15T17:27:22;83.38;;;34.67;;
28174;SDS011;59417;44.788;10.334;2023-02-15T17:30:00;72.93;;;37.22;;
28174;SDS011;59417;44.788;10.334;2023-02-15T17:32:29;68.03;;;34.70;;
28174;SDS011;59417;44.788;10.334;2023-02-15T17:35:19;82.30;;;36.83;;
28174;SDS011;59417;44.788;10.334;2023-02-15T17:38:32;74.60;;;36.80;;
28174;SDS011;59417;44.788;10.334;2023-02-15T17:40:51;77.38;;;36.40;;
28174;SDS011;59417;44.788;10.334;2023-02-15T17:43:17;81.70;;;36.05;;
28174;SDS011;59417;44.788;10.334;2023-02-15T17:45:48;76.18;;;36.42;;
28174;SDS011;59417;44.788;10.334;2023-02-15T17:48:19;77.13;;;36.17;;
28174;SDS011;59417;44.788;10.334;2023-02-15T17:50:57;73.18;;;36.50;;
28174;SDS011;59417;44.788;10.334;2023-02-15T17:56:27;76.00;;;36.10;;
28174;SDS011;59417;44.788;10.334;2023-02-15T17:58:56;74.73;;;37.07;;
28174;SDS011;59417;44.788;10.334;2023-02-15T18:05:15;67.18;;;36.22;;
28174;SDS011;59417;44.788;10.334;2023-02-15T18:08:00;72.03;;;35.63;;
28174;SDS011;59417;44.788;10.334;2023-02-15T18:10:44;82.18;;;38.13;;
28174;SDS011;59417;44.788;10.334;2023-02-15T18:13:29;76.15;;;35.80;;
28174;SDS011;59417;44.788;10.334;2023-02-15T18:15:54;74.50;;;37.80;;
28174;SDS011;59417;44.788;10.334;2023-02-15T18:18:20;75.78;;;35.47;;
28174;SDS011;59417;44.788;10.334;2023-02-15T18:20:48;76.03;;;38.92;;
28174;SDS011;59417;44.788;10.334;2023-02-15T18:23:14;72.22;;;36.92;;
28174;SDS011;59417;44.788;10.334;2023-02-15T18:25:40;74.13;;;37.63;;
28174;SDS011;59417;44.788;10.334;2023-02-15T18:28:07;88.43;;;39.97;;
28174;SDS011;59417;44.788;10.334;2023-02-15T18:30:34;76.25;;;39.92;;
28174;SDS011;59417;44.788;10.334;2023-02-15T18:33:01;80.50;;;39.35;;
28174;SDS011;59417;44.788;10.334;2023-02-15T18:35:30;109.97;;;52.15;;
28174;SDS011;59417;44.788;10.334;2023-02-15T18:38:12;91.50;;;42.60;;
28174;SDS011;59417;44.788;10.334;2023-02-15T18:40:38;76.22;;;39.13;;
28174;SDS011;59417;44.788;10.334;2023-02-15T18:43:13;68.75;;;38.95;;
28174;SDS011;59417;44.788;10.334;2023-02-15T18:49:27;77.43;;;42.03;;
28174;SDS011;59417;44.788;10.334;2023-02-15T19:10:17;74.07;;;39.22;;
28174;SDS011;59417;44.788;10.334;2023-02-15T19:13:15;73.00;;;39.40;;
28174;SDS011;59417;44.788;10.334;2023-02-15T19:15:51;83.57;;;40.37;;
28174;SDS011;59417;44.788;10.334;2023-02-15T19:22:39;68.70;;;38.47;;
28174;SDS011;59417;44.788;10.334;2023-02-15T19:25:27;71.65;;;39.70;;
28174;SDS011;59417;44.788;10.334;2023-02-15T19:28:42;81.53;;;41.47;;
28174;SDS011;59417;44.788;10.334;2023-02-15T19:31:50;81.97;;;41.10;;
28174;SDS011;59417;44.788;10.334;2023-02-15T19:34:16;75.68;;;38.40;;
28174;SDS011;59417;44.788;10.334;2023-02-15T19:36:45;74.45;;;37.50;;
28174;SDS011;59417;44.788;10.334;2023-02-15T19:39:20;74.95;;;37.95;;
28174;SDS011;59417;44.788;10.334;2023-02-15T19:41:47;69.18;;;39.15;;
28174;SDS011;59417;44.788;10.334;2023-02-15T19:44:12;80.72;;;40.03;;
28174;SDS011;59417;44.788;10.334;2023-02-15T19:46:38;69.55;;;39.40;;
28174;SDS011;59417;44.788;10.334;2023-02-15T19:49:03;72.45;;;36.38;;
28174;SDS011;59417;44.788;10.334;2023-02-15T19:51:29;76.82;;;39.50;;
28174;SDS011;59417;44.788;10.334;2023-02-15T19:53:55;71.25;;;37.30;;
28174;SDS011;59417;44.788;10.334;2023-02-15T19:56:24;58.75;;;34.47;;
28174;SDS011;59417;44.788;10.334;2023-02-15T19:58:51;61.75;;;33.70;;
28174;SDS011;59417;44.788;10.334;2023-02-15T20:01:19;73.32;;;34.88;;
28174;SDS011;59417;44.788;10.334;2023-02-15T20:03:48;74.85;;;33.88;;
28174;SDS011;59417;44.788;10.334;2023-02-15T20:06:16;71.90;;;36.50;;
28174;SDS011;59417;44.788;10.334;2023-02-15T20:08:42;64.65;;;35.38;;
28174;SDS011;59417;44.788;10.334;2023-02-15T20:11:10;70.75;;;36.60;;
28174;SDS011;59417;44.788;10.334;2023-02-15T20:13:37;72.40;;;35.15;;
28174;SDS011;59417;44.788;10.334;2023-02-15T20:16:04;64.85;;;34.55;;
28174;SDS011;59417;44.788;10.334;2023-02-15T20:18:32;62.00;;;34.33;;
28174;SDS011;59417;44.788;10.334;2023-02-15T20:20:58;52.75;;;30.63;;
28174;SDS011;59417;44.788;10.334;2023-02-15T20:25:53;64.13;;;33.83;;
28174;SDS011;59417;44.788;10.334;2023-02-15T20:28:23;64.60;;;31.83;;
28174;SDS011;59417;44.788;10.334;2023-02-15T20:30:50;59.10;;;32.72;;
28174;SDS011;59417;44.788;10.334;2023-02-15T20:33:19;57.70;;;33.60;;
28174;SDS011;59417;44.788;10.334;2023-02-15T20:35:46;56.80;;;31.48;;
28174;SDS011;59417;44.788;10.334;2023-02-15T20:38:17;59.50;;;31.88;;
28174;SDS011;59417;44.788;10.334;2023-02-15T20:40:45;56.83;;;31.52;;
28174;SDS011;59417;44.788;10.334;2023-02-15T20:43:30;52.38;;;31.42;;
28174;SDS011;59417;44.788;10.334;2023-02-15T20:45:56;57.13;;;33.45;;
28174;SDS011;59417;44.788;10.334;2023-02-15T20:48:22;62.80;;;32.45;;
28174;SDS011;59417;44.788;10.334;2023-02-15T20:50:48;62.13;;;32.47;;
28174;SDS011;59417;44.788;10.334;2023-02-15T20:53:14;57.67;;;31.77;;
28174;SDS011;59417;44.788;10.334;2023-02-15T20:55:40;57.00;;;31.40;;
28174;SDS011;59417;44.788;10.334;2023-02-15T20:58:14;61.85;;;33.05;;
28174;SDS011;59417;44.788;10.334;2023-02-15T21:00:42;55.35;;;31.48;;
28174;SDS011;59417;44.788;10.334;2023-02-15T21:03:09;61.28;;;31.58;;
28174;SDS011;59417;44.788;10.334;2023-02-15T21:05:37;55.70;;;29.25;;
28174;SDS011;59417;44.788;10.334;2023-02-15T21:08:11;55.63;;;31.25;;
28174;SDS011;59417;44.788;10.334;2023-02-15T21:10:38;60.25;;;31.88;;
28174;SDS011;59417;44.788;10.334;2023-02-15T21:13:08;64.57;;;33.80;;
28174;SDS011;59417;44.788;10.334;2023-02-15T21:15:44;64.95;;;33.50;;
28174;SDS011;59417;44.788;10.334;2023-02-15T21:18:14;63.25;;;34.47;;
28174;SDS011;59417;44.788;10.334;2023-02-15T21:20:44;72.50;;;36.13;;
28174;SDS011;59417;44.788;10.334;2023-02-15T21:23:12;65.57;;;35.53;;
28174;SDS011;59417;44.788;10.334;2023-02-15T21:25:42;74.72;;;37.53;;
28174;SDS011;59417;44.788;10.334;2023-02-15T21:28:10;65.22;;;34.60;;
28174;SDS011;59417;44.788;10.334;2023-02-15T21:30:41;61.05;;;34.50;;
28174;SDS011;59417;44.788;10.334;2023-02-15T21:33:07;60.85;;;33.38;;